sensor_id;sensor_type;location;lat;lon;timestamp;temperature;humidity
42097;DHT22;27754;45.414;11.084;2023-04-06T00:01:07;5.40;57.80
42097;DHT22;27754;45.414;11.084;2023-04-06T00:03:34;5.40;57.70
42097;DHT22;27754;45.414;11.084;2023-04-06T00:06:02;5.40;57.80
42097;DHT22;27754;45.414;11.084;2023-04-06T00:08:29;5.40;58.30
42097;DHT22;27754;45.414;11.084;2023-04-06T00:10:56;5.40;58.50
42097;DHT22;27754;45.414;11.084;2023-04-06T00:13:23;5.40;58.80
42097;DHT22;27754;45.414;11.084;2023-04-06T00:15:50;5.40;59.20
42097;DHT22;27754;45.414;11.084;2023-04-06T00:18:17;5.40;59.30
42097;DHT22;27754;45.414;11.084;2023-04-06T00:20:44;5.40;59.50
42097;DHT22;27754;45.414;11.084;2023-04-06T00:23:11;5.40;59.80
42097;DHT22;27754;45.414;11.084;2023-04-06T00:25:37;5.40;59.80
42097;DHT22;27754;45.414;11.084;2023-04-06T00:28:04;5.40;59.90
42097;DHT22;27754;45.414;11.084;2023-04-06T00:30:31;5.50;59.70
42097;DHT22;27754;45.414;11.084;2023-04-06T00:32:59;5.50;59.90
42097;DHT22;27754;45.414;11.084;2023-04-06T00:35:26;5.50;59.90
42097;DHT22;27754;45.414;11.084;2023-04-06T00:37:53;5.50;60.30
42097;DHT22;27754;45.414;11.084;2023-04-06T00:40:20;5.50;59.70
42097;DHT22;27754;45.414;11.084;2023-04-06T00:42:48;5.40;59.10
42097;DHT22;27754;45.414;11.084;2023-04-06T00:45:15;5.40;58.80
42097;DHT22;27754;45.414;11.084;2023-04-06T00:47:43;5.40;59.20
42097;DHT22;27754;45.414;11.084;2023-04-06T00:50:10;5.40;59.20
42097;DHT22;27754;45.414;11.084;2023-04-06T00:52:37;5.40;59.40
42097;DHT22;27754;45.414;11.084;2023-04-06T00:55:07;5.40;59.30
42097;DHT22;27754;45.414;11.084;2023-04-06T00:57:39;5.40;59.40
42097;DHT22;27754;45.414;11.084;2023-04-06T01:00:07;5.30;59.60
42097;DHT22;27754;45.414;11.084;2023-04-06T01:02:35;5.30;59.70
42097;DHT22;27754;45.414;11.084;2023-04-06T01:05:02;5.30;60.30
42097;DHT22;27754;45.414;11.084;2023-04-06T01:07:38;5.30;60.30
42097;DHT22;27754;45.414;11.084;2023-04-06T01:10:10;5.20;59.70
42097;DHT22;27754;45.414;11.084;2023-04-06T01:12:37;5.20;59.30
42097;DHT22;27754;45.414;11.084;2023-04-06T01:15:13;5.10;59.20
42097;DHT22;27754;45.414;11.084;2023-04-06T01:17:47;5.10;59.40
42097;DHT22;27754;45.414;11.084;2023-04-06T01:20:16;5.00;59.30
42097;DHT22;27754;45.414;11.084;2023-04-06T01:22:43;5.10;59.50
42097;DHT22;27754;45.414;11.084;2023-04-06T01:25:11;5.20;59.70
42097;DHT22;27754;45.414;11.084;2023-04-06T01:28:01;5.20;59.20
42097;DHT22;27754;45.414;11.084;2023-04-06T01:30:45;5.30;59.70
42097;DHT22;27754;45.414;11.084;2023-04-06T01:33:24;5.10;60.30
42097;DHT22;27754;45.414;11.084;2023-04-06T01:36:03;5.10;60.50
42097;DHT22;27754;45.414;11.084;2023-04-06T01:38:30;5.10;61.10
42097;DHT22;27754;45.414;11.084;2023-04-06T01:40:57;5.10;61.30
42097;DHT22;27754;45.414;11.084;2023-04-06T01:43:28;5.10;61.50
42097;DHT22;27754;45.414;11.084;2023-04-06T01:46:03;5.10;62.00
42097;DHT22;27754;45.414;11.084;2023-04-06T01:48:34;5.10;62.90
42097;DHT22;27754;45.414;11.084;2023-04-06T01:51:10;5.00;64.10
42097;DHT22;27754;45.414;11.084;2023-04-06T01:53:46;5.00;64.30
42097;DHT22;27754;45.414;11.084;2023-04-06T01:56:13;5.00;64.00
42097;DHT22;27754;45.414;11.084;2023-04-06T01:58:46;4.90;64.30
42097;DHT22;27754;45.414;11.084;2023-04-06T02:01:15;4.80;65.20
42097;DHT22;27754;45.414;11.084;2023-04-06T02:03:50;4.70;66.60
42097;DHT22;27754;45.414;11.084;2023-04-06T02:06:18;4.70;65.30
42097;DHT22;27754;45.414;11.084;2023-04-06T02:08:51;4.70;64.90
42097;DHT22;27754;45.414;11.084;2023-04-06T02:11:19;4.70;63.90
42097;DHT22;27754;45.414;11.084;2023-04-06T02:13:52;4.90;64.00
42097;DHT22;27754;45.414;11.084;2023-04-06T02:16:21;4.90;64.40
42097;DHT22;27754;45.414;11.084;2023-04-06T02:18:49;4.90;65.50
42097;DHT22;27754;45.414;11.084;2023-04-06T02:21:17;4.90;65.30
42097;DHT22;27754;45.414;11.084;2023-04-06T02:23:47;4.90;65.80
42097;DHT22;27754;45.414;11.084;2023-04-06T02:26:14;4.90;65.30
42097;DHT22;27754;45.414;11.084;2023-04-06T02:28:41;4.90;65.00
42097;DHT22;27754;45.414;11.084;2023-04-06T02:31:08;5.00;64.90
42097;DHT22;27754;45.414;11.084;2023-04-06T02:33:35;4.90;64.60
42097;DHT22;27754;45.414;11.084;2023-04-06T02:36:03;5.00;64.40
42097;DHT22;27754;45.414;11.084;2023-04-06T02:38:30;5.00;64.40
42097;DHT22;27754;45.414;11.084;2023-04-06T02:41:00;5.00;64.10
42097;DHT22;27754;45.414;11.084;2023-04-06T02:43:28;5.10;63.50
42097;DHT22;27754;45.414;11.084;2023-04-06T02:46:03;5.10;63.20
42097;DHT22;27754;45.414;11.084;2023-04-06T02:48:34;5.10;63.20
42097;DHT22;27754;45.414;11.084;2023-04-06T02:51:03;5.10;63.30
42097;DHT22;27754;45.414;11.084;2023-04-06T02:53:31;5.10;62.90
42097;DHT22;27754;45.414;11.084;2023-04-06T02:55:58;5.20;62.40
42097;DHT22;27754;45.414;11.084;2023-04-06T02:58:33;5.20;62.10
42097;DHT22;27754;45.414;11.084;2023-04-06T03:01:00;5.20;62.30
42097;DHT22;27754;45.414;11.084;2023-04-06T03:03:27;5.20;62.40
42097;DHT22;27754;45.414;11.084;2023-04-06T03:05:56;5.30;62.10
42097;DHT22;27754;45.414;11.084;2023-04-06T03:08:28;5.30;62.30
42097;DHT22;27754;45.414;11.084;2023-04-06T03:10:55;5.30;61.90
42097;DHT22;27754;45.414;11.084;2023-04-06T03:13:30;5.30;61.80
42097;DHT22;27754;45.414;11.084;2023-04-06T03:15:57;5.30;62.10
42097;DHT22;27754;45.414;11.084;2023-04-06T03:18:26;5.30;62.00
42097;DHT22;27754;45.414;11.084;2023-04-06T03:20:55;5.30;62.10
42097;DHT22;27754;45.414;11.084;2023-04-06T03:23:28;5.30;62.10
42097;DHT22;27754;45.414;11.084;2023-04-06T03:25:58;5.20;62.10
42097;DHT22;27754;45.414;11.084;2023-04-06T03:28:26;5.30;61.80
42097;DHT22;27754;45.414;11.084;2023-04-06T03:30:56;5.30;62.10
42097;DHT22;27754;45.414;11.084;2023-04-06T03:33:38;5.30;62.20
42097;DHT22;27754;45.414;11.084;2023-04-06T03:36:08;5.30;61.40
42097;DHT22;27754;45.414;11.084;2023-04-06T03:38:40;5.30;60.80
42097;DHT22;27754;45.414;11.084;2023-04-06T03:41:11;5.30;61.00
42097;DHT22;27754;45.414;11.084;2023-04-06T03:43:41;5.20;60.90
42097;DHT22;27754;45.414;11.084;2023-04-06T03:46:08;5.10;61.50
42097;DHT22;27754;45.414;11.084;2023-04-06T03:48:36;5.10;62.00
42097;DHT22;27754;45.414;11.084;2023-04-06T03:51:05;5.00;63.00
42097;DHT22;27754;45.414;11.084;2023-04-06T03:53:32;5.00;62.80
42097;DHT22;27754;45.414;11.084;2023-04-06T03:55:59;4.90;62.20
42097;DHT22;27754;45.414;11.084;2023-04-06T03:58:29;5.00;61.20
42097;DHT22;27754;45.414;11.084;2023-04-06T04:00:56;4.90;62.00
42097;DHT22;27754;45.414;11.084;2023-04-06T04:03:23;4.90;62.00
42097;DHT22;27754;45.414;11.084;2023-04-06T04:05:53;4.90;62.50
42097;DHT22;27754;45.414;11.084;2023-04-06T04:08:24;4.90;62.40
42097;DHT22;27754;45.414;11.084;2023-04-06T04:10:52;4.90;61.90
42097;DHT22;27754;45.414;11.084;2023-04-06T04:13:19;4.90;62.30
42097;DHT22;27754;45.414;11.084;2023-04-06T04:15:49;4.90;63.30
42097;DHT22;27754;45.414;11.084;2023-04-06T04:18:16;4.90;63.20
42097;DHT22;27754;45.414;11.084;2023-04-06T04:20:43;4.80;63.10
42097;DHT22;27754;45.414;11.084;2023-04-06T04:23:11;4.90;62.70
42097;DHT22;27754;45.414;11.084;2023-04-06T04:25:38;4.80;62.80
42097;DHT22;27754;45.414;11.084;2023-04-06T04:28:05;4.80;63.10
42097;DHT22;27754;45.414;11.084;2023-04-06T04:30:33;4.80;63.90
42097;DHT22;27754;45.414;11.084;2023-04-06T04:33:00;4.70;63.80
42097;DHT22;27754;45.414;11.084;2023-04-06T04:35:27;4.50;63.30
42097;DHT22;27754;45.414;11.084;2023-04-06T04:37:56;4.50;63.50
42097;DHT22;27754;45.414;11.084;2023-04-06T04:40:23;4.50;63.70
42097;DHT22;27754;45.414;11.084;2023-04-06T04:42:56;4.50;63.70
42097;DHT22;27754;45.414;11.084;2023-04-06T04:45:28;4.50;63.10
42097;DHT22;27754;45.414;11.084;2023-04-06T04:47:59;4.50;63.40
42097;DHT22;27754;45.414;11.084;2023-04-06T04:50:34;4.50;63.80
42097;DHT22;27754;45.414;11.084;2023-04-06T04:53:01;4.50;64.00
42097;DHT22;27754;45.414;11.084;2023-04-06T04:55:28;4.60;64.20
42097;DHT22;27754;45.414;11.084;2023-04-06T04:57:58;4.60;64.30
42097;DHT22;27754;45.414;11.084;2023-04-06T05:00:43;4.60;64.10
42097;DHT22;27754;45.414;11.084;2023-04-06T05:03:17;4.60;64.00
42097;DHT22;27754;45.414;11.084;2023-04-06T05:05:51;4.50;63.30
42097;DHT22;27754;45.414;11.084;2023-04-06T05:08:18;4.50;63.00
42097;DHT22;27754;45.414;11.084;2023-04-06T05:10:47;4.60;63.10
42097;DHT22;27754;45.414;11.084;2023-04-06T05:13:15;4.40;65.80
42097;DHT22;27754;45.414;11.084;2023-04-06T05:15:43;4.20;66.80
42097;DHT22;27754;45.414;11.084;2023-04-06T05:18:20;4.20;67.00
42097;DHT22;27754;45.414;11.084;2023-04-06T05:20:47;4.10;66.50
42097;DHT22;27754;45.414;11.084;2023-04-06T05:23:14;4.10;66.20
42097;DHT22;27754;45.414;11.084;2023-04-06T05:25:42;4.20;66.30
42097;DHT22;27754;45.414;11.084;2023-04-06T05:28:18;4.20;66.80
42097;DHT22;27754;45.414;11.084;2023-04-06T05:30:45;4.30;67.60
42097;DHT22;27754;45.414;11.084;2023-04-06T05:33:14;4.40;68.20
42097;DHT22;27754;45.414;11.084;2023-04-06T05:35:56;4.40;67.20
42097;DHT22;27754;45.414;11.084;2023-04-06T05:38:23;4.50;66.90
42097;DHT22;27754;45.414;11.084;2023-04-06T05:40:52;4.70;66.60
42097;DHT22;27754;45.414;11.084;2023-04-06T05:43:24;4.80;66.00
42097;DHT22;27754;45.414;11.084;2023-04-06T05:45:54;5.00;65.70
42097;DHT22;27754;45.414;11.084;2023-04-06T05:48:21;5.10;65.60
42097;DHT22;27754;45.414;11.084;2023-04-06T05:50:49;5.20;65.20
42097;DHT22;27754;45.414;11.084;2023-04-06T05:53:25;5.30;66.00
42097;DHT22;27754;45.414;11.084;2023-04-06T05:55:56;5.50;65.60
42097;DHT22;27754;45.414;11.084;2023-04-06T05:58:25;5.70;65.60
42097;DHT22;27754;45.414;11.084;2023-04-06T06:01:01;5.60;65.80
42097;DHT22;27754;45.414;11.084;2023-04-06T06:03:36;5.70;66.40
42097;DHT22;27754;45.414;11.084;2023-04-06T06:06:04;5.90;65.10
42097;DHT22;27754;45.414;11.084;2023-04-06T06:08:49;6.00;65.30
42097;DHT22;27754;45.414;11.084;2023-04-06T06:11:18;6.30;64.20
42097;DHT22;27754;45.414;11.084;2023-04-06T06:13:47;6.40;64.10
42097;DHT22;27754;45.414;11.084;2023-04-06T06:16:14;6.70;63.60
42097;DHT22;27754;45.414;11.084;2023-04-06T06:18:45;6.90;62.60
42097;DHT22;27754;45.414;11.084;2023-04-06T06:21:12;7.10;61.50
42097;DHT22;27754;45.414;11.084;2023-04-06T06:23:41;7.20;60.30
42097;DHT22;27754;45.414;11.084;2023-04-06T06:26:11;7.50;60.00
42097;DHT22;27754;45.414;11.084;2023-04-06T06:28:38;7.80;59.10
42097;DHT22;27754;45.414;11.084;2023-04-06T06:31:06;8.00;57.80
42097;DHT22;27754;45.414;11.084;2023-04-06T06:33:34;8.30;57.50
42097;DHT22;27754;45.414;11.084;2023-04-06T06:36:02;8.50;55.80
42097;DHT22;27754;45.414;11.084;2023-04-06T06:38:29;8.60;55.50
42097;DHT22;27754;45.414;11.084;2023-04-06T06:40:57;8.50;56.10
42097;DHT22;27754;45.414;11.084;2023-04-06T06:43:28;8.80;56.10
42097;DHT22;27754;45.414;11.084;2023-04-06T06:45:59;9.00;54.20
42097;DHT22;27754;45.414;11.084;2023-04-06T06:48:26;9.20;53.70
42097;DHT22;27754;45.414;11.084;2023-04-06T06:50:54;9.40;53.50
42097;DHT22;27754;45.414;11.084;2023-04-06T06:53:21;9.50;53.60
42097;DHT22;27754;45.414;11.084;2023-04-06T06:55:51;9.80;52.40
42097;DHT22;27754;45.414;11.084;2023-04-06T06:58:18;9.90;51.10
42097;DHT22;27754;45.414;11.084;2023-04-06T07:00:47;9.90;49.30
42097;DHT22;27754;45.414;11.084;2023-04-06T07:03:15;9.80;48.90
42097;DHT22;27754;45.414;11.084;2023-04-06T07:05:46;10.00;48.90
42097;DHT22;27754;45.414;11.084;2023-04-06T07:08:22;9.90;49.10
42097;DHT22;27754;45.414;11.084;2023-04-06T07:10:51;10.00;48.80
42097;DHT22;27754;45.414;11.084;2023-04-06T07:13:24;10.20;47.90
42097;DHT22;27754;45.414;11.084;2023-04-06T07:15:55;10.20;48.50
42097;DHT22;27754;45.414;11.084;2023-04-06T07:18:23;10.50;48.80
42097;DHT22;27754;45.414;11.084;2023-04-06T07:20:50;10.60;46.20
42097;DHT22;27754;45.414;11.084;2023-04-06T07:23:17;10.70;45.10
42097;DHT22;27754;45.414;11.084;2023-04-06T07:25:44;10.80;46.10
42097;DHT22;27754;45.414;11.084;2023-04-06T07:28:12;11.00;46.10
42097;DHT22;27754;45.414;11.084;2023-04-06T07:30:40;11.00;45.70
42097;DHT22;27754;45.414;11.084;2023-04-06T07:33:08;11.20;43.50
42097;DHT22;27754;45.414;11.084;2023-04-06T07:35:36;11.30;43.20
42097;DHT22;27754;45.414;11.084;2023-04-06T07:38:04;11.50;41.40
42097;DHT22;27754;45.414;11.084;2023-04-06T07:40:33;11.40;42.20
42097;DHT22;27754;45.414;11.084;2023-04-06T07:43:00;11.50;43.60
42097;DHT22;27754;45.414;11.084;2023-04-06T07:45:27;11.70;42.90
42097;DHT22;27754;45.414;11.084;2023-04-06T07:47:54;11.80;43.80
42097;DHT22;27754;45.414;11.084;2023-04-06T07:50:24;11.90;43.70
42097;DHT22;27754;45.414;11.084;2023-04-06T07:52:52;11.90;44.70
42097;DHT22;27754;45.414;11.084;2023-04-06T07:55:19;11.90;42.70
42097;DHT22;27754;45.414;11.084;2023-04-06T07:57:46;11.90;43.20
42097;DHT22;27754;45.414;11.084;2023-04-06T08:00:14;12.10;43.40
42097;DHT22;27754;45.414;11.084;2023-04-06T08:02:40;12.30;42.10
42097;DHT22;27754;45.414;11.084;2023-04-06T08:05:08;12.30;43.00
42097;DHT22;27754;45.414;11.084;2023-04-06T08:07:35;12.40;42.70
42097;DHT22;27754;45.414;11.084;2023-04-06T08:10:03;12.30;43.90
42097;DHT22;27754;45.414;11.084;2023-04-06T08:12:32;12.50;43.70
42097;DHT22;27754;45.414;11.084;2023-04-06T08:14:59;12.60;43.10
42097;DHT22;27754;45.414;11.084;2023-04-06T08:17:26;12.70;43.10
42097;DHT22;27754;45.414;11.084;2023-04-06T08:19:57;12.70;41.90
42097;DHT22;27754;45.414;11.084;2023-04-06T08:22:24;12.70;41.80
42097;DHT22;27754;45.414;11.084;2023-04-06T08:24:51;12.60;42.40
42097;DHT22;27754;45.414;11.084;2023-04-06T08:27:18;12.60;42.40
42097;DHT22;27754;45.414;11.084;2023-04-06T08:29:45;12.70;43.20
42097;DHT22;27754;45.414;11.084;2023-04-06T08:32:12;12.70;42.80
42097;DHT22;27754;45.414;11.084;2023-04-06T08:34:39;12.80;43.90
42097;DHT22;27754;45.414;11.084;2023-04-06T08:37:06;12.80;41.40
42097;DHT22;27754;45.414;11.084;2023-04-06T08:39:33;12.90;41.20
42097;DHT22;27754;45.414;11.084;2023-04-06T08:42:01;12.60;40.60
42097;DHT22;27754;45.414;11.084;2023-04-06T08:44:31;12.50;40.90
42097;DHT22;27754;45.414;11.084;2023-04-06T08:47:00;12.50;41.50
42097;DHT22;27754;45.414;11.084;2023-04-06T08:49:27;12.50;41.40
42097;DHT22;27754;45.414;11.084;2023-04-06T08:51:55;12.40;41.70
42097;DHT22;27754;45.414;11.084;2023-04-06T08:54:24;12.40;42.50
42097;DHT22;27754;45.414;11.084;2023-04-06T08:56:52;12.50;42.10
42097;DHT22;27754;45.414;11.084;2023-04-06T08:59:20;12.40;41.00
42097;DHT22;27754;45.414;11.084;2023-04-06T09:01:47;12.50;40.80
42097;DHT22;27754;45.414;11.084;2023-04-06T09:04:15;12.40;42.40
42097;DHT22;27754;45.414;11.084;2023-04-06T09:06:43;12.60;42.30
42097;DHT22;27754;45.414;11.084;2023-04-06T09:09:10;12.90;41.50
42097;DHT22;27754;45.414;11.084;2023-04-06T09:11:45;12.90;41.30
42097;DHT22;27754;45.414;11.084;2023-04-06T09:14:13;13.00;41.90
42097;DHT22;27754;45.414;11.084;2023-04-06T09:16:41;12.90;41.90
42097;DHT22;27754;45.414;11.084;2023-04-06T09:19:09;13.00;42.00
42097;DHT22;27754;45.414;11.084;2023-04-06T09:21:37;13.10;40.50
42097;DHT22;27754;45.414;11.084;2023-04-06T09:24:07;13.30;41.60
42097;DHT22;27754;45.414;11.084;2023-04-06T09:26:45;13.10;40.10
42097;DHT22;27754;45.414;11.084;2023-04-06T09:29:23;13.00;39.30
42097;DHT22;27754;45.414;11.084;2023-04-06T09:31:51;12.90;41.00
42097;DHT22;27754;45.414;11.084;2023-04-06T09:34:22;13.10;40.10
42097;DHT22;27754;45.414;11.084;2023-04-06T09:36:50;13.20;39.80
42097;DHT22;27754;45.414;11.084;2023-04-06T09:39:21;12.90;40.20
42097;DHT22;27754;45.414;11.084;2023-04-06T09:41:53;13.10;41.10
42097;DHT22;27754;45.414;11.084;2023-04-06T09:44:21;13.10;40.10
42097;DHT22;27754;45.414;11.084;2023-04-06T09:46:48;13.30;41.10
42097;DHT22;27754;45.414;11.084;2023-04-06T09:49:31;13.30;39.80
42097;DHT22;27754;45.414;11.084;2023-04-06T09:52:00;13.20;38.60
42097;DHT22;27754;45.414;11.084;2023-04-06T09:54:29;13.20;38.80
42097;DHT22;27754;45.414;11.084;2023-04-06T09:57:11;12.80;39.30
42097;DHT22;27754;45.414;11.084;2023-04-06T10:02:36;13.00;39.90
42097;DHT22;27754;45.414;11.084;2023-04-06T10:05:33;13.10;39.30
42097;DHT22;27754;45.414;11.084;2023-04-06T10:08:10;13.10;39.70
42097;DHT22;27754;45.414;11.084;2023-04-06T10:10:37;13.10;40.30
42097;DHT22;27754;45.414;11.084;2023-04-06T10:13:13;13.20;41.20
42097;DHT22;27754;45.414;11.084;2023-04-06T10:15:40;13.30;40.30
42097;DHT22;27754;45.414;11.084;2023-04-06T10:18:08;13.30;40.30
42097;DHT22;27754;45.414;11.084;2023-04-06T10:20:42;13.30;39.30
42097;DHT22;27754;45.414;11.084;2023-04-06T10:23:26;13.40;40.00
42097;DHT22;27754;45.414;11.084;2023-04-06T10:25:57;13.30;40.10
42097;DHT22;27754;45.414;11.084;2023-04-06T10:28:26;13.20;39.20
42097;DHT22;27754;45.414;11.084;2023-04-06T10:31:02;13.30;38.60
42097;DHT22;27754;45.414;11.084;2023-04-06T10:33:31;13.40;40.20
42097;DHT22;27754;45.414;11.084;2023-04-06T10:35:58;13.40;38.90
42097;DHT22;27754;45.414;11.084;2023-04-06T10:38:35;13.40;39.60
42097;DHT22;27754;45.414;11.084;2023-04-06T10:41:10;13.50;40.00
42097;DHT22;27754;45.414;11.084;2023-04-06T10:43:39;13.70;40.90
42097;DHT22;27754;45.414;11.084;2023-04-06T10:46:08;13.70;39.80
42097;DHT22;27754;45.414;11.084;2023-04-06T10:48:43;13.60;39.20
42097;DHT22;27754;45.414;11.084;2023-04-06T10:51:15;13.40;39.50
42097;DHT22;27754;45.414;11.084;2023-04-06T10:53:44;13.40;40.50
42097;DHT22;27754;45.414;11.084;2023-04-06T10:56:13;13.60;39.80
42097;DHT22;27754;45.414;11.084;2023-04-06T10:58:48;13.80;39.80
42097;DHT22;27754;45.414;11.084;2023-04-06T11:01:20;13.90;40.30
42097;DHT22;27754;45.414;11.084;2023-04-06T11:03:52;13.90;39.60
42097;DHT22;27754;45.414;11.084;2023-04-06T11:06:20;13.90;39.70
42097;DHT22;27754;45.414;11.084;2023-04-06T11:08:48;13.80;41.10
42097;DHT22;27754;45.414;11.084;2023-04-06T11:11:17;13.80;40.30
42097;DHT22;27754;45.414;11.084;2023-04-06T11:13:48;14.00;41.90
42097;DHT22;27754;45.414;11.084;2023-04-06T11:16:24;14.00;39.90
42097;DHT22;27754;45.414;11.084;2023-04-06T11:18:56;14.10;40.60
42097;DHT22;27754;45.414;11.084;2023-04-06T11:21:46;14.10;41.00
42097;DHT22;27754;45.414;11.084;2023-04-06T11:29:27;14.20;39.90
42097;DHT22;27754;45.414;11.084;2023-04-06T11:31:59;14.40;41.30
42097;DHT22;27754;45.414;11.084;2023-04-06T11:34:29;14.40;40.60
42097;DHT22;27754;45.414;11.084;2023-04-06T11:36:58;14.40;41.30
42097;DHT22;27754;45.414;11.084;2023-04-06T11:39:27;14.30;39.60
42097;DHT22;27754;45.414;11.084;2023-04-06T11:41:58;14.30;39.40
42097;DHT22;27754;45.414;11.084;2023-04-06T11:44:36;14.30;40.50
42097;DHT22;27754;45.414;11.084;2023-04-06T11:47:07;14.20;38.70
42097;DHT22;27754;45.414;11.084;2023-04-06T11:49:37;14.10;39.90
42097;DHT22;27754;45.414;11.084;2023-04-06T11:52:15;14.00;39.90
42097;DHT22;27754;45.414;11.084;2023-04-06T11:54:43;14.20;40.80
42097;DHT22;27754;45.414;11.084;2023-04-06T11:57:10;14.40;40.30
42097;DHT22;27754;45.414;11.084;2023-04-06T11:59:37;14.40;39.70
42097;DHT22;27754;45.414;11.084;2023-04-06T12:02:04;14.60;40.50
42097;DHT22;27754;45.414;11.084;2023-04-06T12:04:32;14.60;39.60
42097;DHT22;27754;45.414;11.084;2023-04-06T12:06:59;14.70;40.80
42097;DHT22;27754;45.414;11.084;2023-04-06T12:09:26;14.50;39.40
42097;DHT22;27754;45.414;11.084;2023-04-06T12:11:53;14.50;39.40
42097;DHT22;27754;45.414;11.084;2023-04-06T12:14:20;14.60;39.40
42097;DHT22;27754;45.414;11.084;2023-04-06T12:16:47;14.70;39.80
42097;DHT22;27754;45.414;11.084;2023-04-06T12:19:14;14.60;40.70
42097;DHT22;27754;45.414;11.084;2023-04-06T12:21:41;14.60;39.90
42097;DHT22;27754;45.414;11.084;2023-04-06T12:24:09;14.80;39.70
42097;DHT22;27754;45.414;11.084;2023-04-06T12:26:36;14.70;38.60
42097;DHT22;27754;45.414;11.084;2023-04-06T12:29:03;14.60;39.60
42097;DHT22;27754;45.414;11.084;2023-04-06T12:31:37;14.70;40.20
42097;DHT22;27754;45.414;11.084;2023-04-06T12:34:07;14.70;40.80
42097;DHT22;27754;45.414;11.084;2023-04-06T12:36:34;14.80;40.00
42097;DHT22;27754;45.414;11.084;2023-04-06T12:39:01;14.80;39.70
42097;DHT22;27754;45.414;11.084;2023-04-06T12:41:29;14.80;40.20
42097;DHT22;27754;45.414;11.084;2023-04-06T12:43:56;14.90;39.60
42097;DHT22;27754;45.414;11.084;2023-04-06T12:46:23;15.00;39.00
42097;DHT22;27754;45.414;11.084;2023-04-06T12:48:51;14.90;39.20
42097;DHT22;27754;45.414;11.084;2023-04-06T12:51:20;14.90;39.30
42097;DHT22;27754;45.414;11.084;2023-04-06T12:53:47;14.80;39.60
42097;DHT22;27754;45.414;11.084;2023-04-06T12:56:16;14.90;40.20
42097;DHT22;27754;45.414;11.084;2023-04-06T12:58:44;15.10;40.50
42097;DHT22;27754;45.414;11.084;2023-04-06T13:01:12;15.20;39.60
42097;DHT22;27754;45.414;11.084;2023-04-06T13:03:40;15.10;38.90
42097;DHT22;27754;45.414;11.084;2023-04-06T13:06:08;15.10;38.60
42097;DHT22;27754;45.414;11.084;2023-04-06T13:08:35;15.10;38.70
42097;DHT22;27754;45.414;11.084;2023-04-06T13:11:04;15.10;39.60
42097;DHT22;27754;45.414;11.084;2023-04-06T13:13:31;15.10;40.00
42097;DHT22;27754;45.414;11.084;2023-04-06T13:16:04;15.10;38.90
42097;DHT22;27754;45.414;11.084;2023-04-06T13:18:31;15.20;40.40
42097;DHT22;27754;45.414;11.084;2023-04-06T13:20:59;15.40;38.90
42097;DHT22;27754;45.414;11.084;2023-04-06T13:23:26;15.40;38.90
42097;DHT22;27754;45.414;11.084;2023-04-06T13:26:06;15.40;38.70
42097;DHT22;27754;45.414;11.084;2023-04-06T13:28:36;15.40;39.90
42097;DHT22;27754;45.414;11.084;2023-04-06T13:31:06;15.40;39.90
42097;DHT22;27754;45.414;11.084;2023-04-06T13:33:34;15.20;37.90
42097;DHT22;27754;45.414;11.084;2023-04-06T13:36:01;15.40;38.70
42097;DHT22;27754;45.414;11.084;2023-04-06T13:38:29;15.30;38.90
42097;DHT22;27754;45.414;11.084;2023-04-06T13:40:56;15.30;37.90
42097;DHT22;27754;45.414;11.084;2023-04-06T13:43:23;15.30;39.10
42097;DHT22;27754;45.414;11.084;2023-04-06T13:45:54;15.50;38.60
42097;DHT22;27754;45.414;11.084;2023-04-06T13:48:25;15.60;38.50
42097;DHT22;27754;45.414;11.084;2023-04-06T13:50:52;15.60;38.90
42097;DHT22;27754;45.414;11.084;2023-04-06T13:53:19;15.70;38.10
42097;DHT22;27754;45.414;11.084;2023-04-06T13:55:54;15.70;39.60
42097;DHT22;27754;45.414;11.084;2023-04-06T13:58:22;15.80;39.40
42097;DHT22;27754;45.414;11.084;2023-04-06T14:00:49;15.60;38.40
42097;DHT22;27754;45.414;11.084;2023-04-06T14:03:16;15.70;39.30
42097;DHT22;27754;45.414;11.084;2023-04-06T14:05:44;16.00;39.30
42097;DHT22;27754;45.414;11.084;2023-04-06T14:08:11;15.90;38.40
42097;DHT22;27754;45.414;11.084;2023-04-06T14:10:41;15.90;38.10
42097;DHT22;27754;45.414;11.084;2023-04-06T14:13:11;15.80;38.60
42097;DHT22;27754;45.414;11.084;2023-04-06T14:15:38;15.80;37.60
42097;DHT22;27754;45.414;11.084;2023-04-06T14:18:05;15.90;38.50
42097;DHT22;27754;45.414;11.084;2023-04-06T14:20:32;16.00;39.30
42097;DHT22;27754;45.414;11.084;2023-04-06T14:23:03;15.80;38.90
42097;DHT22;27754;45.414;11.084;2023-04-06T14:25:30;15.80;38.30
42097;DHT22;27754;45.414;11.084;2023-04-06T14:28:01;15.80;37.90
42097;DHT22;27754;45.414;11.084;2023-04-06T14:30:30;15.80;38.20
42097;DHT22;27754;45.414;11.084;2023-04-06T14:32:58;15.80;38.30
42097;DHT22;27754;45.414;11.084;2023-04-06T14:35:25;15.80;39.40
42097;DHT22;27754;45.414;11.084;2023-04-06T14:37:55;15.60;38.70
42097;DHT22;27754;45.414;11.084;2023-04-06T14:40:24;15.60;39.30
42097;DHT22;27754;45.414;11.084;2023-04-06T14:42:51;15.60;38.80
42097;DHT22;27754;45.414;11.084;2023-04-06T14:45:18;15.50;39.50
42097;DHT22;27754;45.414;11.084;2023-04-06T14:47:48;15.50;40.20
42097;DHT22;27754;45.414;11.084;2023-04-06T14:50:15;15.50;39.60
42097;DHT22;27754;45.414;11.084;2023-04-06T14:52:42;15.50;39.20
42097;DHT22;27754;45.414;11.084;2023-04-06T14:55:09;15.40;39.20
42097;DHT22;27754;45.414;11.084;2023-04-06T14:57:36;15.40;40.00
42097;DHT22;27754;45.414;11.084;2023-04-06T15:00:03;15.40;39.50
42097;DHT22;27754;45.414;11.084;2023-04-06T15:02:32;15.50;39.90
42097;DHT22;27754;45.414;11.084;2023-04-06T15:04:59;15.40;39.60
42097;DHT22;27754;45.414;11.084;2023-04-06T15:07:28;15.40;39.00
42097;DHT22;27754;45.414;11.084;2023-04-06T15:09:57;15.40;39.30
42097;DHT22;27754;45.414;11.084;2023-04-06T15:12:24;15.50;39.40
42097;DHT22;27754;45.414;11.084;2023-04-06T15:14:51;15.40;37.90
42097;DHT22;27754;45.414;11.084;2023-04-06T15:17:18;15.50;39.80
42097;DHT22;27754;45.414;11.084;2023-04-06T15:19:45;15.40;38.30
42097;DHT22;27754;45.414;11.084;2023-04-06T15:22:12;15.50;38.40
42097;DHT22;27754;45.414;11.084;2023-04-06T15:24:39;15.60;38.30
42097;DHT22;27754;45.414;11.084;2023-04-06T15:27:06;15.50;38.50
42097;DHT22;27754;45.414;11.084;2023-04-06T15:29:33;15.60;40.00
42097;DHT22;27754;45.414;11.084;2023-04-06T15:32:00;15.70;39.40
42097;DHT22;27754;45.414;11.084;2023-04-06T15:34:27;15.70;37.90
42097;DHT22;27754;45.414;11.084;2023-04-06T15:37:00;15.70;38.20
42097;DHT22;27754;45.414;11.084;2023-04-06T15:39:28;15.50;37.60
42097;DHT22;27754;45.414;11.084;2023-04-06T15:41:55;15.40;38.50
42097;DHT22;27754;45.414;11.084;2023-04-06T15:44:23;15.30;39.50